Time;durP1;ratioP1;P1;durP2;ratioP2;P2;SDS_P1;SDS_P2;PMS_P1;PMS_P2;Temp;Humidity;BMP_temperature;BMP_pressure;BME280_temperature;BME280_humidity;BME280_pressure;Samples;Min_cycle;Max_cycle;Signal;HPM_P1;HPM_P2
2023/07/18 00:00:37;;;;;;;4.97;4.33;;;;;;;;;;5114280;28;20223;-77
2023/07/18 00:03:05;;;;;;;4.70;4.30;;;;;;;;;;5114189;28;20199;-76
2023/07/18 00:05:34;;;;;;;9.27;4.83;;;;;;;;;;5114398;28;20198;-77
2023/07/18 00:08:00;;;;;;;5.43;4.40;;;;;;;;;;5114071;28;20227;-77
2023/07/18 00:10:27;;;;;;;8.87;4.50;;;;;;;;;;5113246;28;20199;-77
2023/07/18 00:12:54;;;;;;;5.47;4.03;;;;;;;;;;5113210;28;20203;-77
2023/07/18 00:15:21;;;;;;;4.80;4.40;;;;;;;;;;5113297;28;20661;-77
2023/07/18 00:17:48;;;;;;;4.10;3.80;;;;;;;;;;5113301;28;20756;-77
2023/07/18 00:20:18;;;;;;;4.60;4.17;;;;;;;;;;5113341;28;20223;-77
2023/07/18 00:22:48;;;;;;;4.67;4.27;;;;;;;;;;5113017;28;20202;-77
2023/07/18 00:25:16;;;;;;;4.23;3.80;;;;;;;;;;5112935;28;20673;-77
2023/07/18 00:27:43;;;;;;;4.60;4.20;;;;;;;;;;5113407;28;20290;-77
2023/07/18 00:30:12;;;;;;;4.47;3.97;;;;;;;;;;5113618;28;20203;-76
2023/07/18 00:32:39;;;;;;;6.60;5.30;;;;;;;;;;5112645;28;20674;-76
2023/07/18 00:35:07;;;;;;;5.30;4.40;;;;;;;;;;5113462;28;20252;-77
2023/07/18 00:37:34;;;;;;;10.73;4.60;;;;;;;;;;5112818;28;20206;-77
2023/07/18 00:40:05;;;;;;;4.73;4.33;;;;;;;;;;5113198;28;20230;-77
2023/07/18 00:42:32;;;;;;;5.20;4.20;;;;;;;;;;5112722;28;20249;-77
2023/07/18 00:44:59;;;;;;;5.00;4.50;;;;;;;;;;5112593;28;20669;-77
2023/07/18 00:47:26;;;;;;;7.10;3.97;;;;;;;;;;5113056;28;20294;-77
2023/07/18 00:49:53;;;;;;;4.10;3.80;;;;;;;;;;5112523;28;20214;-77
2023/07/18 00:52:21;;;;;;;4.97;4.40;;;;;;;;;;5113008;28;20624;-77
2023/07/18 00:54:47;;;;;;;5.57;4.27;;;;;;;;;;5112520;28;20195;-77
2023/07/18 00:57:15;;;;;;;5.07;4.67;;;;;;;;;;5112763;28;20633;-77
2023/07/18 00:59:42;;;;;;;5.67;4.07;;;;;;;;;;5112513;28;20223;-76
2023/07/18 01:02:09;;;;;;;33.33;6.20;;;;;;;;;;5112482;28;20680;-76
2023/07/18 01:04:37;;;;;;;10.07;5.10;;;;;;;;;;5112561;28;20290;-77
2023/07/18 01:07:04;;;;;;;12.20;5.13;;;;;;;;;;5112669;28;20207;-77
2023/07/18 01:09:31;;;;;;;5.70;4.33;;;;;;;;;;5112887;28;20199;-76
2023/07/18 01:11:58;;;;;;;5.37;4.37;;;;;;;;;;5112320;28;20199;-76
2023/07/18 01:14:26;;;;;;;4.73;4.40;;;;;;;;;;5112205;28;20203;-75
2023/07/18 01:16:53;;;;;;;4.73;4.33;;;;;;;;;;5112917;28;20199;-75
2023/07/18 01:19:20;;;;;;;4.37;3.47;;;;;;;;;;5112243;28;20219;-75
2023/07/18 01:21:49;;;;;;;5.13;4.60;;;;;;;;;;5112601;28;20198;-75
2023/07/18 01:24:15;;;;;;;6.13;4.17;;;;;;;;;;5112543;28;20264;-76
2023/07/18 01:26:42;;;;;;;4.40;4.00;;;;;;;;;;5112116;28;20206;-76
2023/07/18 01:29:10;;;;;;;8.97;5.03;;;;;;;;;;5112391;28;20206;-76
2023/07/18 01:31:37;;;;;;;4.53;4.13;;;;;;;;;;5112085;28;20267;-76
2023/07/18 01:34:05;;;;;;;5.17;4.37;;;;;;;;;;5112901;28;20203;-75
2023/07/18 01:36:31;;;;;;;4.00;3.70;;;;;;;;;;5111974;28;20200;-76
2023/07/18 01:39:00;;;;;;;4.43;3.97;;;;;;;;;;5112395;28;20570;-76
2023/07/18 01:41:26;;;;;;;4.30;3.90;;;;;;;;;;5112136;28;20196;-76
2023/07/18 01:43:53;;;;;;;5.17;4.37;;;;;;;;;;5112745;28;20195;-75
2023/07/18 01:46:20;;;;;;;4.97;4.30;;;;;;;;;;5116672;28;20256;-76
2023/07/18 01:48:47;;;;;;;4.17;3.73;;;;;;;;;;5116359;28;20202;-76
2023/07/18 01:51:13;;;;;;;5.20;4.27;;;;;;;;;;5116240;28;20773;-75
2023/07/18 01:53:40;;;;;;;4.60;4.20;;;;;;;;;;5115989;28;20210;-75
2023/07/18 01:56:09;;;;;;;4.83;4.43;;;;;;;;;;5116018;28;20572;-75
2023/07/18 01:58:35;;;;;;;4.87;4.23;;;;;;;;;;5116212;28;20666;-75
2023/07/18 02:01:04;;;;;;;3.97;3.63;;;;;;;;;;5116262;28;20226;-75
2023/07/18 02:03:31;;;;;;;4.13;3.73;;;;;;;;;;5115898;28;20238;-75
2023/07/18 02:05:58;;;;;;;4.13;3.83;;;;;;;;;;5115730;28;20200;-75
2023/07/18 02:08:25;;;;;;;4.87;4.47;;;;;;;;;;5116252;28;20191;-75
2023/07/18 02:10:51;;;;;;;4.10;3.77;;;;;;;;;;5115593;28;20199;-75
2023/07/18 02:13:21;;;;;;;3.90;3.60;;;;;;;;;;5115759;28;20199;-75
2023/07/18 02:15:47;;;;;;;5.40;3.80;;;;;;;;;;5115535;28;20242;-75
2023/07/18 02:18:14;;;;;;;6.80;4.67;;;;;;;;;;5115682;28;20203;-75
2023/07/18 02:20:42;;;;;;;4.60;4.03;;;;;;;;;;5115367;28;20222;-75
2023/07/18 02:23:09;;;;;;;6.23;4.07;;;;;;;;;;5115706;28;20203;-75
2023/07/18 02:25:35;;;;;;;13.80;4.70;;;;;;;;;;5115394;28;20199;-75
2023/07/18 02:28:02;;;;;;;6.23;4.47;;;;;;;;;;5115259;28;20196;-75
2023/07/18 02:30:31;;;;;;;5.17;4.77;;;;;;;;;;5115254;28;20195;-75
2023/07/18 02:32:58;;;;;;;4.07;3.77;;;;;;;;;;5115232;28;20199;-75
2023/07/18 02:35:25;;;;;;;4.27;3.90;;;;;;;;;;5115581;28;20626;-75
2023/07/18 02:37:51;;;;;;;4.80;3.97;;;;;;;;;;5115088;28;20196;-75
2023/07/18 02:40:18;;;;;;;4.40;3.70;;;;;;;;;;5113521;28;20693;-75
2023/07/18 02:42:45;;;;;;;4.70;4.30;;;;;;;;;;5113647;28;20199;-75
2023/07/18 02:45:12;;;;;;;5.27;4.70;;;;;;;;;;5114539;28;20200;-75
2023/07/18 02:47:40;;;;;;;4.57;4.17;;;;;;;;;;5114460;28;20260;-75
2023/07/18 02:50:08;;;;;;;5.30;4.17;;;;;;;;;;5114251;28;20582;-75
2023/07/18 02:52:35;;;;;;;7.03;4.47;;;;;;;;;;5113506;28;20248;-75
2023/07/18 02:55:03;;;;;;;4.67;4.33;;;;;;;;;;5100189;28;20570;-75
2023/07/18 02:57:29;;;;;;;7.47;3.83;;;;;;;;;;5094578;28;20207;-75
2023/07/18 02:59:57;;;;;;;5.73;4.30;;;;;;;;;;5094253;28;20223;-75
2023/07/18 03:02:24;;;;;;;4.10;3.80;;;;;;;;;;5094349;28;20208;-75
2023/07/18 03:04:52;;;;;;;5.50;4.50;;;;;;;;;;5094830;28;20197;-75
2023/07/18 03:07:19;;;;;;;3.87;3.47;;;;;;;;;;5094724;28;20201;-75
2023/07/18 03:09:46;;;;;;;5.77;4.27;;;;;;;;;;5094168;28;20203;-75
2023/07/18 03:12:13;;;;;;;5.17;4.07;;;;;;;;;;5094460;28;20208;-75
2023/07/18 03:14:40;;;;;;;32.83;5.83;;;;;;;;;;5094326;28;20211;-75
2023/07/18 03:17:07;;;;;;;14.50;4.50;;;;;;;;;;5093150;28;20200;-75
2023/07/18 03:19:34;;;;;;;11.33;4.30;;;;;;;;;;5114283;28;20195;-75
2023/07/18 03:22:02;;;;;;;5.57;4.97;;;;;;;;;;5114469;28;20195;-75
2023/07/18 03:24:29;;;;;;;5.67;4.60;;;;;;;;;;5114324;28;20225;-75
2023/07/18 03:26:56;;;;;;;6.60;3.97;;;;;;;;;;5114572;28;20195;-76
2023/07/18 03:29:22;;;;;;;6.57;4.17;;;;;;;;;;5115171;28;20308;-75
2023/07/18 03:31:49;;;;;;;5.33;4.53;;;;;;;;;;5114588;28;20195;-75
2023/07/18 03:34:16;;;;;;;5.27;3.67;;;;;;;;;;5114023;28;20249;-76
2023/07/18 03:36:44;;;;;;;4.07;3.77;;;;;;;;;;5114688;28;20279;-75
2023/07/18 03:39:13;;;;;;;4.97;3.70;;;;;;;;;;5114052;28;20199;-75
2023/07/18 03:41:40;;;;;;;4.10;3.80;;;;;;;;;;5114084;28;20231;-76
2023/07/18 03:44:07;;;;;;;4.20;3.80;;;;;;;;;;5112830;28;20199;-75
2023/07/18 03:46:33;;;;;;;4.40;4.00;;;;;;;;;;5114069;28;20195;-76
2023/07/18 03:49:00;;;;;;;5.00;4.50;;;;;;;;;;5113795;28;20206;-76
2023/07/18 03:51:27;;;;;;;4.47;4.17;;;;;;;;;;5112502;28;20319;-76
2023/07/18 03:53:54;;;;;;;4.27;3.87;;;;;;;;;;5114217;28;20199;-75
2023/07/18 03:56:23;;;;;;;4.40;3.43;;;;;;;;;;5114688;28;20210;-74
2023/07/18 03:58:51;;;;;;;5.73;4.90;;;;;;;;;;5095745;28;20200;-74
2023/07/18 04:01:18;;;;;;;4.00;3.60;;;;;;;;;;5093338;28;20223;-75
2023/07/18 04:03:45;;;;;;;6.47;3.97;;;;;;;;;;5093277;28;20249;-76
2023/07/18 04:06:13;;;;;;;7.00;4.77;;;;;;;;;;5092657;28;20207;-76
2023/07/18 04:08:40;;;;;;;5.17;4.17;;;;;;;;;;5093193;28;20724;-76
2023/07/18 04:11:07;;;;;;;5.17;4.67;;;;;;;;;;5093258;28;20224;-76
2023/07/18 04:13:36;;;;;;;5.30;4.23;;;;;;;;;;5093757;28;20211;-76
2023/07/18 04:16:03;;;;;;;6.57;4.10;;;;;;;;;;5093322;28;20288;-77
2023/07/18 04:18:29;;;;;;;5.17;4.67;;;;;;;;;;5092917;28;20701;-77
2023/07/18 04:21:01;;;;;;;12.03;4.77;;;;;;;;;;5093097;28;20224;-77
2023/07/18 04:23:28;;;;;;;8.60;4.67;;;;;;;;;;5093775;28;20196;-76
2023/07/18 04:25:56;;;;;;;5.17;4.10;;;;;;;;;;5093328;28;20604;-77
2023/07/18 04:28:23;;;;;;;6.97;5.10;;;;;;;;;;5092552;28;20203;-77
2023/07/18 04:30:52;;;;;;;11.57;5.07;;;;;;;;;;5092694;28;20189;-77
2023/07/18 04:33:19;;;;;;;14.23;5.13;;;;;;;;;;5108419;28;20198;-77
2023/07/18 04:35:45;;;;;;;7.87;4.83;;;;;;;;;;5092676;28;20203;-76
2023/07/18 04:38:13;;;;;;;8.67;5.13;;;;;;;;;;5092846;28;20196;-77
2023/07/18 04:40:40;;;;;;;9.70;5.53;;;;;;;;;;5099077;28;20261;-77
2023/07/18 04:43:07;;;;;;;9.70;4.53;;;;;;;;;;5097340;28;20573;-77
2023/07/18 04:45:34;;;;;;;17.00;5.53;;;;;;;;;;5101568;28;20574;-77
2023/07/18 04:48:02;;;;;;;7.47;4.50;;;;;;;;;;5091116;28;20684;-77
2023/07/18 04:50:29;;;;;;;10.73;4.93;;;;;;;;;;5091004;28;20238;-77
2023/07/18 04:52:57;;;;;;;8.90;4.73;;;;;;;;;;5107368;28;20212;-77
2023/07/18 04:55:23;;;;;;;10.47;4.37;;;;;;;;;;5090893;28;20204;-77
2023/07/18 04:57:50;;;;;;;8.77;5.30;;;;;;;;;;5090609;28;20192;-77
2023/07/18 05:00:18;;;;;;;6.40;5.00;;;;;;;;;;5104067;28;20649;-77
2023/07/18 05:02:45;;;;;;;6.33;4.60;;;;;;;;;;5098126;28;20191;-76
2023/07/18 05:05:13;;;;;;;9.37;4.93;;;;;;;;;;5098315;28;20203;-77
2023/07/18 05:07:44;;;;;;;6.23;4.20;;;;;;;;;;5091178;28;20224;-76
2023/07/18 05:10:11;;;;;;;4.83;4.33;;;;;;;;;;5104921;28;20202;-77
2023/07/18 05:12:38;;;;;;;8.57;5.80;;;;;;;;;;5111684;28;20191;-77
2023/07/18 05:15:06;;;;;;;5.77;4.87;;;;;;;;;;5111683;28;20200;-77
2023/07/18 05:17:33;;;;;;;6.27;4.83;;;;;;;;;;5098372;28;20199;-76
2023/07/18 05:20:00;;;;;;;8.83;4.63;;;;;;;;;;5097244;28;20203;-77
2023/07/18 05:22:28;;;;;;;10.50;5.87;;;;;;;;;;5107169;28;20658;-77
2023/07/18 05:24:55;;;;;;;8.60;5.63;;;;;;;;;;5092165;28;20200;-77
2023/07/18 05:27:22;;;;;;;13.40;5.70;;;;;;;;;;5102844;28;20655;-76
2023/07/18 05:29:49;;;;;;;10.10;5.70;;;;;;;;;;5106136;28;20219;-76
2023/07/18 05:32:16;;;;;;;7.90;4.90;;;;;;;;;;5111136;28;20692;-76
2023/07/18 05:34:43;;;;;;;8.77;5.20;;;;;;;;;;5095617;28;20197;-76
2023/07/18 05:37:10;;;;;;;5.27;4.73;;;;;;;;;;5101276;28;20192;-76
2023/07/18 05:39:38;;;;;;;6.37;5.77;;;;;;;;;;5091500;28;20219;-76
2023/07/18 05:42:05;;;;;;;9.60;5.23;;;;;;;;;;5100126;28;20215;-76
2023/07/18 05:44:32;;;;;;;8.20;5.60;;;;;;;;;;5097948;28;20607;-76
2023/07/18 05:46:59;;;;;;;11.07;5.20;;;;;;;;;;5103800;28;20196;-76
2023/07/18 05:49:26;;;;;;;6.40;5.63;;;;;;;;;;5090504;28;20200;-76
2023/07/18 05:51:53;;;;;;;8.33;5.20;;;;;;;;;;5100158;28;20219;-77
2023/07/18 05:54:20;;;;;;;5.23;4.63;;;;;;;;;;5096535;28;20192;-76
2023/07/18 05:56:49;;;;;;;6.03;5.43;;;;;;;;;;5111185;28;20195;-76
2023/07/18 05:59:15;;;;;;;5.40;4.93;;;;;;;;;;5110961;28;20204;-77
2023/07/18 06:01:44;;;;;;;5.30;4.80;;;;;;;;;;5101539;28;20216;-77
2023/07/18 06:04:15;;;;;;;5.80;5.17;;;;;;;;;;5104817;28;20199;-77
2023/07/18 06:06:43;;;;;;;5.47;4.90;;;;;;;;;;5091022;28;20279;-77
2023/07/18 06:09:10;;;;;;;5.97;5.37;;;;;;;;;;5094345;28;20283;-77
2023/07/18 06:11:37;;;;;;;5.07;4.57;;;;;;;;;;5110823;28;20195;-76
2023/07/18 06:14:06;;;;;;;6.47;5.57;;;;;;;;;;5111005;28;20191;-76
2023/07/18 06:16:33;;;;;;;5.17;4.77;;;;;;;;;;5110888;28;20199;-77
2023/07/18 06:19:00;;;;;;;7.30;5.00;;;;;;;;;;5092829;28;20671;-77
2023/07/18 06:21:27;;;;;;;6.77;4.87;;;;;;;;;;5101735;28;20246;-77
2023/07/18 06:23:54;;;;;;;5.90;5.30;;;;;;;;;;5090622;28;20201;-77
2023/07/18 06:26:22;;;;;;;6.07;5.47;;;;;;;;;;5101269;28;20195;-76
2023/07/18 06:28:49;;;;;;;7.15;5.10;;;;;;;;;;5111096;28;20208;-76
2023/07/18 06:31:17;;;;;;;5.90;5.40;;;;;;;;;;5100495;28;20211;-77
2023/07/18 06:33:44;;;;;;;5.65;5.10;;;;;;;;;;5106170;28;20208;-76
2023/07/18 06:36:11;;;;;;;11.95;5.35;;;;;;;;;;5107645;28;20650;-77
2023/07/18 06:38:38;;;;;;;6.15;5.28;;;;;;;;;;5101920;28;20237;-77
2023/07/18 06:41:05;;;;;;;6.10;5.60;;;;;;;;;;5099980;28;20219;-77
2023/07/18 06:43:32;;;;;;;6.57;5.95;;;;;;;;;;5114302;28;20199;-77
2023/07/18 06:45:59;;;;;;;6.53;5.93;;;;;;;;;;5098662;28;20592;-77
2023/07/18 06:48:27;;;;;;;7.13;6.13;;;;;;;;;;5114080;28;20191;-76
2023/07/18 06:50:56;;;;;;;7.68;6.50;;;;;;;;;;5100161;28;20622;-77
2023/07/18 06:53:23;;;;;;;8.55;6.70;;;;;;;;;;5113884;28;20674;-77
2023/07/18 06:55:51;;;;;;;6.43;5.80;;;;;;;;;;5112012;28;20286;-77
2023/07/18 06:58:18;;;;;;;6.70;6.07;;;;;;;;;;5093517;28;20200;-76
2023/07/18 07:00:46;;;;;;;7.22;6.55;;;;;;;;;;5104804;28;20208;-77
2023/07/18 07:03:13;;;;;;;8.02;6.70;;;;;;;;;;5104535;28;20621;-76
2023/07/18 07:05:42;;;;;;;7.53;6.88;;;;;;;;;;5110247;28;20218;-77
2023/07/18 07:08:10;;;;;;;8.55;6.30;;;;;;;;;;5093248;28;20283;-77
2023/07/18 07:10:37;;;;;;;6.93;6.43;;;;;;;;;;5097836;28;20196;-77
2023/07/18 07:13:04;;;;;;;7.38;6.57;;;;;;;;;;5102208;28;20198;-77
2023/07/18 07:15:32;;;;;;;6.85;6.07;;;;;;;;;;5110609;28;20683;-77
2023/07/18 07:17:59;;;;;;;7.85;6.43;;;;;;;;;;5104596;28;20207;-77
2023/07/18 07:20:28;;;;;;;7.07;6.47;;;;;;;;;;5107702;28;20646;-77
2023/07/18 07:22:57;;;;;;;6.57;5.88;;;;;;;;;;5103407;28;20619;-76
2023/07/18 07:25:27;;;;;;;6.65;6.10;;;;;;;;;;5106767;28;20195;-77
2023/07/18 07:27:54;;;;;;;11.23;6.85;;;;;;;;;;5107139;28;20195;-77
2023/07/18 07:30:20;;;;;;;6.75;6.03;;;;;;;;;;5100074;28;20202;-77
2023/07/18 07:32:51;;;;;;;6.80;6.15;;;;;;;;;;5113195;28;20202;-78
2023/07/18 07:35:18;;;;;;;6.28;5.78;;;;;;;;;;5106015;28;20738;-77
2023/07/18 07:37:45;;;;;;;11.35;6.28;;;;;;;;;;5094816;28;20199;-77
2023/07/18 07:40:14;;;;;;;6.03;5.53;;;;;;;;;;5105388;28;20196;-77
2023/07/18 07:42:42;;;;;;;6.40;5.90;;;;;;;;;;5106700;28;20234;-77
2023/07/18 07:45:09;;;;;;;6.50;6.00;;;;;;;;;;5092546;28;20208;-77
2023/07/18 07:47:36;;;;;;;5.88;5.28;;;;;;;;;;5093604;28;20204;-77
2023/07/18 07:50:04;;;;;;;7.20;5.78;;;;;;;;;;5100950;28;20196;-77
2023/07/18 07:52:31;;;;;;;7.00;6.40;;;;;;;;;;5110950;28;20260;-77
2023/07/18 07:54:58;;;;;;;6.35;5.75;;;;;;;;;;5101090;28;20253;-77
2023/07/18 07:57:26;;;;;;;7.30;6.03;;;;;;;;;;5110204;28;20200;-77
2023/07/18 07:59:53;;;;;;;7.13;6.20;;;;;;;;;;5092547;28;20196;-77
2023/07/18 08:02:22;;;;;;;7.63;6.40;;;;;;;;;;5105825;28;20227;-77
2023/07/18 08:04:49;;;;;;;7.15;6.53;;;;;;;;;;5101721;28;20202;-77
2023/07/18 08:07:16;;;;;;;7.35;6.10;;;;;;;;;;5095650;28;20203;-77
2023/07/18 08:09:43;;;;;;;7.45;5.72;;;;;;;;;;5102777;28;20202;-77
2023/07/18 08:12:11;;;;;;;8.30;6.82;;;;;;;;;;5097043;28;20211;-77
2023/07/18 08:14:40;;;;;;;8.32;7.60;;;;;;;;;;5101598;28;20192;-77
2023/07/18 08:17:07;;;;;;;11.35;6.80;;;;;;;;;;5109547;28;20192;-77
2023/07/18 08:19:35;;;;;;;6.88;6.28;;;;;;;;;;5112378;28;20199;-78
2023/07/18 08:22:02;;;;;;;8.30;7.60;;;;;;;;;;5096666;28;20250;-77
2023/07/18 08:24:29;;;;;;;7.60;6.95;;;;;;;;;;5112548;28;20206;-77
2023/07/18 08:26:56;;;;;;;7.85;7.25;;;;;;;;;;5098635;28;20196;-78
2023/07/18 08:29:24;;;;;;;9.05;8.30;;;;;;;;;;5100400;28;20203;-77
2023/07/18 08:31:52;;;;;;;7.80;7.20;;;;;;;;;;5106860;28;20241;-77
2023/07/18 08:34:19;;;;;;;7.45;6.75;;;;;;;;;;5098633;28;20223;-78
2023/07/18 08:36:47;;;;;;;7.47;6.93;;;;;;;;;;5105189;28;20677;-77
2023/07/18 08:39:14;;;;;;;7.80;7.00;;;;;;;;;;5092018;28;20196;-78
2023/07/18 08:41:43;;;;;;;9.55;6.38;;;;;;;;;;5091824;28;20228;-77
2023/07/18 08:44:11;;;;;;;8.20;7.40;;;;;;;;;;5092247;28;20312;-77
2023/07/18 08:46:37;;;;;;;8.27;7.32;;;;;;;;;;5107541;28;20204;-77
2023/07/18 08:49:06;;;;;;;7.60;6.97;;;;;;;;;;5104234;28;20200;-78
2023/07/18 08:51:34;;;;;;;8.13;7.25;;;;;;;;;;5099491;28;20631;-77
2023/07/18 08:54:01;;;;;;;8.55;7.55;;;;;;;;;;5111303;28;20614;-77
2023/07/18 08:56:28;;;;;;;11.63;8.02;;;;;;;;;;5099436;28;20195;-77
2023/07/18 08:58:57;;;;;;;8.15;7.53;;;;;;;;;;5111426;28;20195;-78
2023/07/18 09:01:25;;;;;;;7.97;7.25;;;;;;;;;;5111622;28;20202;-77
2023/07/18 09:03:52;;;;;;;8.88;7.43;;;;;;;;;;5110530;28;20195;-78
2023/07/18 09:06:21;;;;;;;8.15;7.47;;;;;;;;;;5091163;28;20228;-77
2023/07/18 09:08:49;;;;;;;10.35;8.32;;;;;;;;;;5091425;28;20196;-77
2023/07/18 09:11:19;;;;;;;10.52;8.48;;;;;;;;;;5101596;28;20194;-78
2023/07/18 09:13:46;;;;;;;9.02;8.20;;;;;;;;;;5096598;28;20616;-77
2023/07/18 09:16:14;;;;;;;8.13;7.20;;;;;;;;;;5100560;28;20222;-77
2023/07/18 09:18:44;;;;;;;7.78;7.07;;;;;;;;;;5097818;28;20199;-78
2023/07/18 09:21:12;;;;;;;9.30;8.35;;;;;;;;;;5111493;28;20210;-77
2023/07/18 09:23:41;;;;;;;11.13;9.30;;;;;;;;;;5110939;28;20753;-77
2023/07/18 09:26:10;;;;;;;10.75;7.97;;;;;;;;;;5098676;28;20200;-77
2023/07/18 09:28:37;;;;;;;10.00;8.80;;;;;;;;;;5108969;28;20192;-77
2023/07/18 09:31:04;;;;;;;9.77;8.98;;;;;;;;;;5097487;28;20265;-77
2023/07/18 09:33:31;;;;;;;10.02;9.13;;;;;;;;;;5102174;28;20192;-77
2023/07/18 09:35:58;;;;;;;9.15;8.45;;;;;;;;;;5103463;28;20222;-78
2023/07/18 09:38:29;;;;;;;8.88;8.07;;;;;;;;;;5090592;28;20192;-77
2023/07/18 09:40:58;;;;;;;10.30;9.40;;;;;;;;;;5104372;28;20202;-78
2023/07/18 09:43:25;;;;;;;9.80;8.90;;;;;;;;;;5090606;28;20594;-77
2023/07/18 09:45:52;;;;;;;9.52;8.82;;;;;;;;;;5105403;28;20563;-77
2023/07/18 09:48:19;;;;;;;10.35;9.32;;;;;;;;;;5097913;28;20199;-77
2023/07/18 09:50:47;;;;;;;9.55;8.60;;;;;;;;;;5111052;28;20246;-77
2023/07/18 09:53:15;;;;;;;9.13;8.30;;;;;;;;;;5090617;28;20693;-77
2023/07/18 09:55:42;;;;;;;9.10;8.38;;;;;;;;;;5104232;28;20209;-77
2023/07/18 09:58:13;;;;;;;8.80;8.13;;;;;;;;;;5102510;28;20203;-78
2023/07/18 10:00:41;;;;;;;9.05;8.38;;;;;;;;;;5104345;28;20196;-78
2023/07/18 10:03:09;;;;;;;9.52;8.82;;;;;;;;;;5090395;28;20702;-78
2023/07/18 10:05:38;;;;;;;10.45;9.40;;;;;;;;;;5109182;28;20242;-78
2023/07/18 10:08:05;;;;;;;11.80;10.52;;;;;;;;;;5105217;28;20203;-78
2023/07/18 10:10:32;;;;;;;11.13;9.95;;;;;;;;;;5107678;28;20192;-77
2023/07/18 10:13:00;;;;;;;12.88;10.07;;;;;;;;;;5094430;28;20223;-77
2023/07/18 10:15:28;;;;;;;11.10;10.07;;;;;;;;;;5106889;28;20192;-78
2023/07/18 10:17:55;;;;;;;10.85;9.85;;;;;;;;;;5104817;28;20204;-77
2023/07/18 10:20:24;;;;;;;12.00;10.93;;;;;;;;;;5108045;28;20203;-78
2023/07/18 10:22:57;;;;;;;10.45;9.63;;;;;;;;;;5105222;28;20219;-77
2023/07/18 10:25:28;;;;;;;10.13;9.38;;;;;;;;;;5109932;28;20188;-77
2023/07/18 10:27:55;;;;;;;11.00;10.00;;;;;;;;;;5107610;28;20200;-78
2023/07/18 10:30:23;;;;;;;11.63;9.45;;;;;;;;;;5108790;28;20200;-77
2023/07/18 10:32:55;;;;;;;11.23;10.32;;;;;;;;;;5093844;28;20200;-77
2023/07/18 10:35:24;;;;;;;10.90;9.93;;;;;;;;;;5100643;28;20215;-77
2023/07/18 10:37:53;;;;;;;11.02;10.00;;;;;;;;;;5114488;28;20199;-78
2023/07/18 10:40:38;;;;;;;12.18;11.00;;;;;;;;;;5094456;28;20200;-77
2023/07/18 10:43:06;;;;;;;12.13;11.10;;;;;;;;;;5093741;28;20224;-78
2023/07/18 10:45:38;;;;;;;12.20;11.10;;;;;;;;;;5106206;28;20195;-78
2023/07/18 10:48:14;;;;;;;11.80;10.82;;;;;;;;;;5099641;28;20653;-78
2023/07/18 10:50:41;;;;;;;11.57;10.00;;;;;;;;;;5114010;28;20231;-77
2023/07/18 10:53:12;;;;;;;12.10;11.00;;;;;;;;;;5114181;28;20214;-77
2023/07/18 10:55:38;;;;;;;10.85;9.90;;;;;;;;;;5114115;28;20203;-78
2023/07/18 10:58:10;;;;;;;9.93;8.98;;;;;;;;;;5113843;28;20202;-78
2023/07/18 11:00:37;;;;;;;10.65;9.65;;;;;;;;;;5114186;28;20198;-77
2023/07/18 11:03:04;;;;;;;12.02;10.27;;;;;;;;;;5101636;28;20705;-78
2023/07/18 11:05:32;;;;;;;11.35;10.35;;;;;;;;;;5101115;28;20200;-78
2023/07/18 11:07:59;;;;;;;11.32;10.48;;;;;;;;;;5113574;28;20199;-78
2023/07/18 11:10:26;;;;;;;12.93;10.07;;;;;;;;;;5111563;28;20206;-78
2023/07/18 11:12:53;;;;;;;10.52;9.48;;;;;;;;;;5093717;28;20192;-77
2023/07/18 11:15:21;;;;;;;10.52;9.38;;;;;;;;;;5106396;28;20696;-77
2023/07/18 11:17:48;;;;;;;9.00;8.27;;;;;;;;;;5099637;28;20199;-77
2023/07/18 11:20:15;;;;;;;10.10;8.40;;;;;;;;;;5096421;28;20200;-77
2023/07/18 11:22:43;;;;;;;9.98;9.00;;;;;;;;;;5102041;28;20588;-77
2023/07/18 11:25:11;;;;;;;10.70;9.65;;;;;;;;;;5099293;28;20191;-77
2023/07/18 11:27:38;;;;;;;10.43;9.50;;;;;;;;;;5103108;28;20207;-78
2023/07/18 11:30:08;;;;;;;11.23;10.13;;;;;;;;;;5109667;28;20196;-77
2023/07/18 11:32:40;;;;;;;13.60;10.82;;;;;;;;;;5113338;28;20199;-77
2023/07/18 11:35:08;;;;;;;10.60;9.70;;;;;;;;;;5108445;28;20192;-77
2023/07/18 11:37:35;;;;;;;9.18;8.32;;;;;;;;;;5093037;28;20192;-77
2023/07/18 11:40:04;;;;;;;9.85;8.85;;;;;;;;;;5110359;28;20199;-77
2023/07/18 11:42:44;;;;;;;9.57;8.77;;;;;;;;;;5106244;28;20627;-78
2023/07/18 11:45:11;;;;;;;11.40;10.57;;;;;;;;;;5092873;28;20218;-77
2023/07/18 11:47:38;;;;;;;11.10;10.20;;;;;;;;;;5107833;28;20196;-77
2023/07/18 11:50:09;;;;;;;10.30;9.32;;;;;;;;;;5112494;28;20242;-78
2023/07/18 11:52:36;;;;;;;12.25;11.05;;;;;;;;;;5112228;28;20323;-78
2023/07/18 11:55:04;;;;;;;12.77;11.77;;;;;;;;;;5100434;28;20195;-78
2023/07/18 11:57:32;;;;;;;12.98;11.77;;;;;;;;;;5100512;28;20191;-78
2023/07/18 11:59:59;;;;;;;11.95;10.95;;;;;;;;;;5103415;28;20204;-78
2023/07/18 12:02:26;;;;;;;11.95;10.73;;;;;;;;;;5105597;28;20267;-78
2023/07/18 12:04:55;;;;;;;11.63;10.50;;;;;;;;;;5092231;28;20193;-77
2023/07/18 12:07:21;;;;;;;11.23;10.32;;;;;;;;;;5095866;28;20201;-78
2023/07/18 12:09:48;;;;;;;12.90;10.85;;;;;;;;;;5102957;28;20199;-77
2023/07/18 12:12:16;;;;;;;11.95;10.82;;;;;;;;;;5096669;28;20191;-78
2023/07/18 12:14:44;;;;;;;10.82;9.80;;;;;;;;;;5112503;28;20199;-78
2023/07/18 12:17:12;;;;;;;10.88;9.85;;;;;;;;;;5098209;28;20203;-77
2023/07/18 12:19:38;;;;;;;11.05;10.13;;;;;;;;;;5112887;28;20219;-77
2023/07/18 12:22:05;;;;;;;10.70;9.90;;;;;;;;;;5111603;28;20187;-78
2023/07/18 12:24:32;;;;;;;10.10;9.30;;;;;;;;;;5100352;28;20227;-78
2023/07/18 12:26:59;;;;;;;11.85;10.48;;;;;;;;;;5109375;28;20650;-78
2023/07/18 12:29:27;;;;;;;10.27;9.48;;;;;;;;;;5100246;28;20210;-78
2023/07/18 12:31:55;;;;;;;11.48;10.15;;;;;;;;;;5102344;28;20203;-78
2023/07/18 12:34:21;;;;;;;17.95;10.60;;;;;;;;;;5091721;28;20211;-78
2023/07/18 12:36:48;;;;;;;12.38;11.13;;;;;;;;;;5091607;28;20196;-77
2023/07/18 12:39:15;;;;;;;10.27;9.27;;;;;;;;;;5091596;28;20207;-77
2023/07/18 12:41:42;;;;;;;12.13;9.93;;;;;;;;;;5099349;28;20203;-77
2023/07/18 12:44:10;;;;;;;11.38;10.23;;;;;;;;;;5111275;28;20617;-77
2023/07/18 12:46:38;;;;;;;10.30;9.32;;;;;;;;;;5091830;28;20208;-77
2023/07/18 12:49:04;;;;;;;11.07;8.70;;;;;;;;;;5103190;28;20200;-78
2023/07/18 12:51:31;;;;;;;9.13;8.43;;;;;;;;;;5091482;28;20723;-77
2023/07/18 12:53:59;;;;;;;7.85;7.15;;;;;;;;;;5091706;28;20647;-78
2023/07/18 12:56:26;;;;;;;8.55;7.88;;;;;;;;;;5098915;28;20248;-77
2023/07/18 12:58:53;;;;;;;9.30;8.45;;;;;;;;;;5111837;28;20199;-78
2023/07/18 13:01:20;;;;;;;9.10;8.25;;;;;;;;;;5104067;28;20192;-77
2023/07/18 13:03:48;;;;;;;8.88;7.90;;;;;;;;;;5091246;28;20226;-78
2023/07/18 13:06:15;;;;;;;8.10;7.50;;;;;;;;;;5103242;28;20234;-78
2023/07/18 13:08:42;;;;;;;10.18;8.30;;;;;;;;;;5106094;28;20200;-77
2023/07/18 13:11:09;;;;;;;8.13;7.53;;;;;;;;;;5111460;28;20199;-78
2023/07/18 13:13:35;;;;;;;7.70;7.00;;;;;;;;;;5109169;28;20195;-78
2023/07/18 13:16:02;;;;;;;8.35;7.63;;;;;;;;;;5099116;28;20203;-77
2023/07/18 13:18:29;;;;;;;9.68;8.68;;;;;;;;;;5108580;28;20199;-77
2023/07/18 13:20:57;;;;;;;11.20;9.13;;;;;;;;;;5099360;28;20226;-77
2023/07/18 13:23:24;;;;;;;11.30;10.00;;;;;;;;;;5096487;28;20216;-78
2023/07/18 13:25:51;;;;;;;10.55;9.65;;;;;;;;;;5099934;28;20569;-77
2023/07/18 13:28:17;;;;;;;11.43;10.27;;;;;;;;;;5098301;28;20195;-78
2023/07/18 13:30:45;;;;;;;11.68;10.32;;;;;;;;;;5111245;28;20616;-78
2023/07/18 13:33:12;;;;;;;13.18;11.40;;;;;;;;;;5097435;28;20207;-78
2023/07/18 13:35:39;;;;;;;11.77;10.63;;;;;;;;;;5111208;28;20273;-78
2023/07/18 13:38:07;;;;;;;11.70;10.43;;;;;;;;;;5095741;28;20200;-79
2023/07/18 13:40:34;;;;;;;12.32;11.15;;;;;;;;;;5102442;28;20200;-79
2023/07/18 13:43:01;;;;;;;11.07;10.00;;;;;;;;;;5111575;28;20219;-78
2023/07/18 13:45:28;;;;;;;12.13;10.48;;;;;;;;;;5115517;28;20286;-78
2023/07/18 13:47:55;;;;;;;10.82;9.80;;;;;;;;;;5096564;28;20223;-78
2023/07/18 13:50:24;;;;;;;10.85;9.77;;;;;;;;;;5095242;28;20240;-77
2023/07/18 13:52:51;;;;;;;10.30;9.55;;;;;;;;;;5108537;28;20200;-78
2023/07/18 13:55:20;;;;;;;11.90;10.80;;;;;;;;;;5105961;28;20669;-78
2023/07/18 13:57:47;;;;;;;10.52;9.63;;;;;;;;;;5101728;28;20195;-78
2023/07/18 14:00:14;;;;;;;10.93;9.88;;;;;;;;;;5115609;28;20195;-78
2023/07/18 14:02:41;;;;;;;12.02;10.30;;;;;;;;;;5110098;28;20200;-78
2023/07/18 14:05:09;;;;;;;11.48;10.32;;;;;;;;;;5106949;28;20219;-78
2023/07/18 14:07:35;;;;;;;10.80;9.77;;;;;;;;;;5109018;28;20184;-78
2023/07/18 14:10:02;;;;;;;9.77;8.77;;;;;;;;;;5105954;28;20210;-77
2023/07/18 14:12:31;;;;;;;9.75;8.70;;;;;;;;;;5109240;28;20192;-78
2023/07/18 14:14:58;;;;;;;10.23;8.05;;;;;;;;;;5107222;28;20200;-78
2023/07/18 14:17:25;;;;;;;9.18;8.38;;;;;;;;;;5108191;28;20224;-78
2023/07/18 14:19:52;;;;;;;9.27;8.43;;;;;;;;;;5104183;28;20199;-78
2023/07/18 14:22:19;;;;;;;9.63;8.38;;;;;;;;;;5101395;28;20331;-77
2023/07/18 14:24:47;;;;;;;9.65;8.65;;;;;;;;;;5100975;28;20223;-78
2023/07/18 14:27:14;;;;;;;8.40;7.70;;;;;;;;;;5114158;28;20191;-79
2023/07/18 14:29:42;;;;;;;9.00;8.18;;;;;;;;;;5115095;28;20704;-78
2023/07/18 14:32:09;;;;;;;8.95;8.13;;;;;;;;;;5098238;28;20192;-78
2023/07/18 14:34:36;;;;;;;9.25;8.18;;;;;;;;;;5094380;28;20189;-77
2023/07/18 14:37:03;;;;;;;10.68;8.50;;;;;;;;;;5094378;28;20196;-78